Time;durP1;ratioP1;P1;durP2;ratioP2;P2;SDS_P1;SDS_P2;PMS_P1;PMS_P2;Temp;Humidity;BMP_temperature;BMP_pressure;BME280_temperature;BME280_humidity;BME280_pressure;Samples;Min_cycle;Max_cycle;Signal;HPM_P1;HPM_P2
2022/01/03 00:01:40;;;;;;;5.55;2.17;;;8.80;92.50;;;;;;5096809;28;20046;-60
2022/01/03 00:04:10;;;;;;;7.78;1.52;;;8.70;92.40;;;;;;5079134;28;20028;-59
2022/01/03 00:06:38;;;;;;;9.60;1.67;;;8.70;92.20;;;;;;5097056;28;20039;-61
2022/01/03 00:09:06;;;;;;;4.35;1.30;;;8.60;92.30;;;;;;5090920;28;20157;-61
2022/01/03 00:11:33;;;;;;;4.75;1.00;;;8.60;92.30;;;;;;5117065;28;20043;-63
2022/01/03 00:14:00;;;;;;;3.80;1.05;;;8.50;92.20;;;;;;5089958;28;20373;-63
2022/01/03 00:16:27;;;;;;;2.00;0.68;;;8.50;92.30;;;;;;5115232;28;20035;-62
2022/01/03 00:18:54;;;;;;;4.65;1.00;;;8.50;92.30;;;;;;5115579;28;20333;-63
2022/01/03 00:21:29;;;;;;;4.93;0.95;;;8.40;92.40;;;;;;5116974;28;20036;-62
2022/01/03 00:24:06;;;;;;;6.53;1.15;;;8.40;92.30;;;;;;5098176;28;20032;-64
2022/01/03 00:26:35;;;;;;;13.95;1.30;;;8.40;92.20;;;;;;5118988;27;20027;-63
2022/01/03 00:29:17;;;;;;;6.28;1.48;;;8.40;92.10;;;;;;5107505;28;20020;-60
2022/01/03 00:31:45;;;;;;;5.28;1.02;;;8.20;91.90;;;;;;5113763;27;20683;-60
2022/01/03 00:34:14;;;;;;;9.13;1.70;;;8.20;92.00;;;;;;5115203;27;20039;-58
2022/01/03 00:36:46;;;;;;;9.23;1.52;;;8.20;91.90;;;;;;5098793;28;20035;-58
2022/01/03 00:39:14;;;;;;;8.95;1.48;;;8.20;92.00;;;;;;5102725;28;20091;-57
2022/01/03 00:41:43;;;;;;;11.25;1.90;;;8.10;91.90;;;;;;5098836;28;20036;-54
2022/01/03 00:44:10;;;;;;;9.15;1.58;;;8.10;92.00;;;;;;5103393;28;20375;-53
2022/01/03 00:46:37;;;;;;;13.90;2.67;;;8.10;91.90;;;;;;5116201;28;20043;-54
2022/01/03 00:49:05;;;;;;;13.13;2.08;;;8.10;91.90;;;;;;5100146;28;20433;-51
2022/01/03 00:51:32;;;;;;;20.05;2.70;;;8.10;91.80;;;;;;5078363;28;20119;-50
2022/01/03 00:53:59;;;;;;;18.10;4.53;;;8.10;91.80;;;;;;5096161;28;20038;-51
2022/01/03 00:56:43;;;;;;;18.08;2.65;;;8.10;91.80;;;;;;5096550;28;20460;-50
2022/01/03 00:59:36;;;;;;;15.07;4.55;;;8.10;91.80;;;;;;5106698;28;20205;-51
2022/01/03 01:02:04;;;;;;;11.88;2.10;;;8.10;91.80;;;;;;5079779;28;20032;-51
2022/01/03 01:04:32;;;;;;;16.27;3.17;;;8.10;91.70;;;;;;5099081;28;20027;-47
2022/01/03 01:06:59;;;;;;;13.57;1.90;;;8.10;91.50;;;;;;5080211;28;20024;-51
2022/01/03 01:09:28;;;;;;;12.73;1.70;;;8.10;91.40;;;;;;5106317;28;20024;-49
2022/01/03 01:11:57;;;;;;;16.67;3.22;;;8.00;91.10;;;;;;5078437;28;20111;-50
2022/01/03 01:14:25;;;;;;;14.45;1.98;;;8.00;90.80;;;;;;5096849;28;20043;-46
2022/01/03 01:16:52;;;;;;;12.85;2.45;;;8.00;90.80;;;;;;5097715;28;20027;-53
2022/01/03 01:19:21;;;;;;;7.40;1.63;;;8.00;90.80;;;;;;5095438;28;20028;-49
2022/01/03 01:21:51;;;;;;;8.00;2.08;;;8.00;90.70;;;;;;5078332;28;20032;-50
2022/01/03 01:24:20;;;;;;;8.45;1.40;;;8.00;90.70;;;;;;5083898;28;20027;-47
2022/01/03 01:29:31;;;;;;;9.45;1.63;;;8.10;91.00;;;;;;5107822;28;20043;-44
2022/01/03 01:32:02;;;;;;;12.38;1.90;;;8.20;91.00;;;;;;5095304;28;20429;-46
2022/01/03 01:34:32;;;;;;;6.60;1.40;;;8.20;91.10;;;;;;5112104;28;20042;-46
2022/01/03 01:36:59;;;;;;;7.60;1.80;;;8.30;91.30;;;;;;5089100;28;20051;-44
2022/01/03 01:39:29;;;;;;;10.05;1.83;;;8.30;91.30;;;;;;5095552;28;20104;-48
2022/01/03 01:42:00;;;;;;;8.48;1.85;;;8.30;91.30;;;;;;5062173;28;20047;-46
2022/01/03 01:44:35;;;;;;;11.35;4.05;;;8.40;91.40;;;;;;5075603;28;20052;-47
2022/01/03 01:47:05;;;;;;;7.28;1.55;;;8.40;91.50;;;;;;5103044;28;20028;-47
2022/01/03 01:49:46;;;;;;;7.40;2.10;;;8.40;91.40;;;;;;5115126;28;20028;-49
2022/01/03 01:52:24;;;;;;;11.77;2.53;;;8.50;91.30;;;;;;5099699;28;20039;-45
2022/01/03 01:55:02;;;;;;;11.32;2.72;;;8.50;91.40;;;;;;5094604;28;20455;-45
2022/01/03 01:58:04;;;;;;;9.20;2.33;;;8.60;91.30;;;;;;5100876;28;20036;-46
2022/01/03 02:00:35;;;;;;;15.60;3.50;;;8.60;91.30;;;;;;5057848;28;20063;-47
2022/01/03 02:03:18;;;;;;;5.80;1.80;;;8.60;91.30;;;;;;5094707;28;20016;-45
2022/01/03 02:06:27;;;;;;;11.93;2.25;;;8.70;91.30;;;;;;5095825;28;20498;-50
2022/01/03 02:09:13;;;;;;;8.23;2.03;;;8.60;91.20;;;;;;5063523;28;20089;-48
2022/01/03 02:12:02;;;;;;;21.23;4.05;;;8.70;91.20;;;;;;5100570;28;20341;-43
2022/01/03 02:14:36;;;;;;;12.90;3.57;;;8.70;91.20;;;;;;5112956;27;20031;-45
2022/01/03 02:17:03;;;;;;;7.88;2.47;;;8.60;91.10;;;;;;5107218;28;20265;-44
2022/01/03 02:19:34;;;;;;;10.52;3.00;;;8.70;91.10;;;;;;5069626;28;20028;-46
2022/01/03 02:22:03;;;;;;;10.45;3.22;;;8.70;90.90;;;;;;5102149;28;20123;-46
2022/01/03 02:24:30;;;;;;;12.87;3.07;;;8.70;90.90;;;;;;5122089;27;20031;-45
2022/01/03 02:27:01;;;;;;;12.57;2.65;;;8.70;90.90;;;;;;5109998;27;20063;-45
2022/01/03 02:29:29;;;;;;;10.63;4.07;;;8.80;90.80;;;;;;5105482;28;20089;-43
2022/01/03 02:31:56;;;;;;;8.88;2.75;;;8.70;90.80;;;;;;5123349;27;20027;-45
2022/01/03 02:34:29;;;;;;;17.00;3.17;;;8.80;90.80;;;;;;5113716;28;20063;-47
2022/01/03 02:36:56;;;;;;;19.95;3.53;;;8.90;90.70;;;;;;5107110;28;20054;-43
2022/01/03 02:39:23;;;;;;;14.32;3.75;;;8.80;90.60;;;;;;5114223;28;20020;-45
2022/01/03 02:41:49;;;;;;;18.58;3.75;;;8.90;90.70;;;;;;5100237;28;20047;-45
2022/01/03 02:44:21;;;;;;;12.65;3.30;;;8.90;90.40;;;;;;5092337;28;20035;-45
2022/01/03 02:46:48;;;;;;;10.23;3.30;;;8.90;90.20;;;;;;5113258;28;20035;-42
2022/01/03 02:49:15;;;;;;;18.42;4.68;;;8.90;90.20;;;;;;5108455;28;20032;-46
2022/01/03 02:51:46;;;;;;;13.48;4.47;;;9.00;90.10;;;;;;5109242;28;20329;-43
2022/01/03 02:54:13;;;;;;;16.77;3.53;;;9.00;90.00;;;;;;5095043;28;20108;-43
2022/01/03 02:56:42;;;;;;;17.48;3.10;;;9.00;90.00;;;;;;5112411;28;20024;-42
2022/01/03 02:59:12;;;;;;;15.13;4.00;;;9.00;90.00;;;;;;5094808;28;20391;-43
2022/01/03 03:01:48;;;;;;;17.75;5.38;;;9.00;89.90;;;;;;5111925;28;20031;-44
2022/01/03 03:04:15;;;;;;;16.90;3.42;;;9.00;89.80;;;;;;5095382;28;20089;-51
2022/01/03 03:06:42;;;;;;;19.75;3.28;;;9.00;89.80;;;;;;5099749;28;20030;-43
2022/01/03 03:09:09;;;;;;;19.27;3.92;;;9.00;89.70;;;;;;5113115;28;20046;-43
2022/01/03 03:11:36;;;;;;;15.80;3.42;;;9.00;89.50;;;;;;5104940;28;20035;-49
2022/01/03 03:14:03;;;;;;;15.70;5.25;;;9.00;89.30;;;;;;5099182;28;20024;-45
2022/01/03 03:16:30;;;;;;;19.92;3.80;;;9.10;89.30;;;;;;5112180;28;20023;-45
2022/01/03 03:18:57;;;;;;;18.48;4.43;;;9.00;89.30;;;;;;5104001;28;20055;-45
2022/01/03 03:21:29;;;;;;;13.88;4.15;;;9.10;89.30;;;;;;5109746;28;20028;-42
2022/01/03 03:23:57;;;;;;;18.42;4.10;;;9.00;89.30;;;;;;5105740;28;20028;-44
2022/01/03 03:26:24;;;;;;;16.75;3.20;;;9.00;89.40;;;;;;5100383;28;20058;-48
2022/01/03 03:28:51;;;;;;;16.10;4.07;;;9.10;89.40;;;;;;5102544;28;20042;-46
2022/01/03 03:31:18;;;;;;;22.55;5.10;;;9.00;89.40;;;;;;5122391;27;20031;-42
2022/01/03 03:33:44;;;;;;;14.02;3.58;;;9.00;89.40;;;;;;5103245;28;20050;-44
2022/01/03 03:36:10;;;;;;;27.48;4.75;;;9.00;89.40;;;;;;5112176;28;20032;-43
2022/01/03 03:38:35;;;;;;;22.15;4.00;;;9.00;89.10;;;;;;5117993;28;20110;-43
2022/01/03 03:41:02;;;;;;;14.57;3.55;;;9.00;89.00;;;;;;5103944;28;20036;-44
2022/01/03 03:43:30;;;;;;;14.93;3.35;;;9.00;89.00;;;;;;5084300;28;20020;-44
2022/01/03 03:45:57;;;;;;;22.88;4.55;;;9.10;89.00;;;;;;5097599;28;20025;-45
2022/01/03 03:48:24;;;;;;;21.30;4.22;;;9.10;89.00;;;;;;5115672;28;20020;-44
2022/01/03 03:50:51;;;;;;;25.48;4.88;;;9.10;88.80;;;;;;5117662;28;20042;-46
2022/01/03 03:53:18;;;;;;;27.02;6.90;;;9.10;88.80;;;;;;5099455;28;20450;-43
2022/01/03 03:55:45;;;;;;;25.98;3.83;;;9.10;88.70;;;;;;5097080;28;20036;-47
2022/01/03 03:58:13;;;;;;;19.55;5.53;;;9.10;88.60;;;;;;5102541;28;20148;-43
2022/01/03 04:00:39;;;;;;;22.20;6.90;;;9.10;88.70;;;;;;5109319;28;20024;-43
2022/01/03 04:03:06;;;;;;;21.25;5.05;;;9.20;88.70;;;;;;5116345;28;20027;-42
2022/01/03 04:05:32;;;;;;;15.70;3.70;;;9.10;88.60;;;;;;5099752;28;20075;-48
2022/01/03 04:07:58;;;;;;;19.85;4.22;;;9.10;88.60;;;;;;5110248;28;20099;-42
2022/01/03 04:10:24;;;;;;;19.52;3.75;;;9.20;88.60;;;;;;5116353;28;20164;-47
2022/01/03 04:12:51;;;;;;;19.88;3.83;;;9.10;88.50;;;;;;5121161;27;20126;-43
2022/01/03 04:15:17;;;;;;;19.00;4.28;;;9.20;88.60;;;;;;5119511;27;20046;-43
2022/01/03 04:17:44;;;;;;;29.38;5.82;;;9.20;88.50;;;;;;5116926;27;20032;-48
2022/01/03 04:20:13;;;;;;;20.50;5.15;;;9.20;88.30;;;;;;5116563;28;20027;-48
2022/01/03 04:22:41;;;;;;;15.32;3.35;;;9.10;88.30;;;;;;5097783;28;20028;-47
2022/01/03 04:25:11;;;;;;;29.67;5.75;;;9.20;88.40;;;;;;5098714;28;20715;-48
2022/01/03 04:27:38;;;;;;;27.25;5.07;;;9.30;88.30;;;;;;5114336;28;20656;-46
2022/01/03 04:30:05;;;;;;;24.13;4.53;;;9.20;88.30;;;;;;5114617;28;20024;-46
2022/01/03 04:32:32;;;;;;;26.10;4.97;;;9.20;88.40;;;;;;5110816;28;20106;-43
2022/01/03 04:34:59;;;;;;;26.92;4.97;;;9.20;88.30;;;;;;5098394;28;20039;-45
2022/01/03 04:37:26;;;;;;;20.15;4.22;;;9.20;88.20;;;;;;5095368;28;20024;-48
2022/01/03 04:39:56;;;;;;;26.48;4.38;;;9.20;88.20;;;;;;5113252;28;20035;-44
2022/01/03 04:42:22;;;;;;;21.88;4.57;;;9.20;88.20;;;;;;5116290;28;20036;-45
2022/01/03 04:44:49;;;;;;;23.20;4.07;;;9.20;88.30;;;;;;5098290;28;20142;-48
2022/01/03 04:47:16;;;;;;;24.40;4.07;;;9.20;88.10;;;;;;5110107;28;20035;-44
2022/01/03 04:49:43;;;;;;;18.33;3.58;;;9.20;88.00;;;;;;5096337;28;20032;-46
2022/01/03 04:52:11;;;;;;;29.40;5.65;;;9.20;88.00;;;;;;5103416;28;20468;-48
2022/01/03 04:54:38;;;;;;;27.52;5.93;;;9.20;87.90;;;;;;5115109;28;20027;-45
2022/01/03 04:57:05;;;;;;;17.48;4.47;;;9.20;87.80;;;;;;5104369;28;20028;-44
2022/01/03 04:59:32;;;;;;;22.23;4.07;;;9.20;87.80;;;;;;5103590;28;20107;-46
2022/01/03 05:02:03;;;;;;;26.15;5.88;;;9.10;87.80;;;;;;5095788;28;20089;-44
2022/01/03 05:04:30;;;;;;;20.70;5.32;;;9.10;87.90;;;;;;5097225;28;20118;-48
2022/01/03 05:06:55;;;;;;;20.67;4.80;;;9.10;88.00;;;;;;5095920;28;20032;-44
2022/01/03 05:09:22;;;;;;;26.63;5.30;;;9.10;87.90;;;;;;5090917;28;20054;-45
2022/01/03 05:11:49;;;;;;;26.60;3.92;;;9.00;87.90;;;;;;5114821;28;20035;-47
2022/01/03 05:14:16;;;;;;;21.95;4.03;;;9.10;87.90;;;;;;5111492;27;20049;-44
2022/01/03 05:16:43;;;;;;;23.65;5.68;;;9.00;87.90;;;;;;5093661;28;20024;-48
2022/01/03 05:19:09;;;;;;;24.95;3.97;;;9.00;87.90;;;;;;5081311;28;20024;-44
2022/01/03 05:21:36;;;;;;;22.10;4.53;;;9.10;87.90;;;;;;5113228;28;20085;-49
2022/01/03 05:24:02;;;;;;;25.33;4.78;;;9.00;87.80;;;;;;5097251;28;20345;-44
2022/01/03 05:26:28;;;;;;;20.77;5.43;;;9.00;88.00;;;;;;5118964;27;20031;-44
2022/01/03 05:28:55;;;;;;;17.63;4.15;;;9.00;88.00;;;;;;5103344;28;20043;-46
2022/01/03 05:31:21;;;;;;;20.48;5.32;;;9.00;88.10;;;;;;5108618;27;20067;-43
2022/01/03 05:33:48;;;;;;;22.40;5.28;;;9.00;88.20;;;;;;5126538;27;20062;-43
2022/01/03 05:36:14;;;;;;;30.77;4.85;;;9.00;88.20;;;;;;5097754;28;20038;-43
2022/01/03 05:38:41;;;;;;;22.38;5.22;;;9.00;88.00;;;;;;5113523;28;20027;-43
2022/01/03 05:41:08;;;;;;;26.63;5.25;;;9.00;87.80;;;;;;5114299;28;20024;-45
2022/01/03 05:43:35;;;;;;;22.95;4.68;;;9.00;87.70;;;;;;5093976;28;20143;-43
2022/01/03 05:46:01;;;;;;;24.90;5.40;;;9.00;87.80;;;;;;5113484;28;20119;-46
2022/01/03 05:48:28;;;;;;;22.00;4.15;;;9.00;87.80;;;;;;5102190;28;20129;-47
2022/01/03 05:50:56;;;;;;;29.02;4.55;;;9.00;87.90;;;;;;5115305;28;20032;-44
2022/01/03 05:53:25;;;;;;;18.73;3.92;;;9.00;88.00;;;;;;5091500;28;20031;-48
2022/01/03 05:55:52;;;;;;;;;;;9.00;88.00;;;;;;5110383;28;20082;-46
2022/01/03 05:58:19;;;;;;;20.02;4.80;;;9.00;88.00;;;;;;5104974;28;19912;-45
2022/01/03 06:00:46;;;;;;;20.95;5.05;;;8.90;88.10;;;;;;5112088;28;20039;-49
2022/01/03 06:03:14;;;;;;;22.95;4.88;;;9.00;87.90;;;;;;5094440;28;20043;-44
2022/01/03 06:08:24;;;;;;;17.77;3.70;;;9.00;88.00;;;;;;5100447;28;20352;-43
2022/01/03 06:10:51;;;;;;;23.52;6.90;;;9.00;88.00;;;;;;5114582;28;20031;-45
2022/01/03 06:13:19;;;;;;;31.00;6.50;;;9.00;88.10;;;;;;5096277;28;20509;-48
2022/01/03 06:15:45;;;;;;;17.77;4.63;;;9.00;87.90;;;;;;5109756;28;20043;-45
2022/01/03 06:18:14;;;;;;;21.67;5.65;;;9.00;87.80;;;;;;5093389;28;20028;-44
2022/01/03 06:20:45;;;;;;;25.60;4.47;;;9.00;87.70;;;;;;5101095;28;20087;-48
2022/01/03 06:23:14;;;;;;;18.90;4.50;;;9.00;87.70;;;;;;5098859;28;20103;-46
2022/01/03 06:25:41;;;;;;;24.98;6.45;;;9.00;87.70;;;;;;5112903;28;20080;-46
2022/01/03 06:28:08;;;;;;;29.63;5.65;;;9.10;87.60;;;;;;5113651;28;20459;-46
2022/01/03 06:30:37;;;;;;;25.13;4.68;;;9.00;87.70;;;;;;5095885;28;20036;-48
2022/01/03 06:33:07;;;;;;;17.70;4.13;;;9.00;87.50;;;;;;5109956;28;20448;-44
2022/01/03 06:35:34;;;;;;;;;;;9.00;87.50;;;;;;5108330;28;20032;-48
2022/01/03 06:38:03;;;;;;;22.27;4.68;;;9.10;87.40;;;;;;5112064;28;20274;-46
2022/01/03 06:40:30;;;;;;;25.13;4.80;;;9.10;87.30;;;;;;5111413;28;20116;-48
2022/01/03 06:42:57;;;;;;;18.92;4.75;;;9.10;87.10;;;;;;5103637;28;20032;-47
2022/01/03 06:45:23;;;;;;;22.27;5.20;;;9.10;87.20;;;;;;5103779;28;20048;-44
2022/01/03 06:47:52;;;;;;;20.38;4.63;;;9.10;87.10;;;;;;5106418;28;20044;-44
2022/01/03 06:50:18;;;;;;;20.55;5.68;;;9.10;87.00;;;;;;5094530;28;20023;-48
2022/01/03 06:52:47;;;;;;;20.63;4.75;;;9.20;86.80;;;;;;5110614;28;20059;-44
2022/01/03 06:55:15;;;;;;;28.77;6.18;;;9.20;86.90;;;;;;5109155;28;20578;-49
2022/01/03 06:57:42;;;;;;;23.88;4.85;;;9.20;87.10;;;;;;5112136;28;20042;-49
2022/01/03 07:00:09;;;;;;;26.25;4.78;;;9.20;87.10;;;;;;5110912;28;20433;-45
2022/01/03 07:02:42;;;;;;;23.58;5.65;;;9.20;87.10;;;;;;5109844;28;20027;-45
2022/01/03 07:05:10;;;;;;;17.88;5.90;;;9.20;87.10;;;;;;5092424;28;20039;-45
2022/01/03 07:07:37;;;;;;;20.63;4.53;;;9.20;87.10;;;;;;5112860;28;20039;-46
2022/01/03 07:10:05;;;;;;;24.02;5.07;;;9.10;87.10;;;;;;5106410;28;20042;-44
2022/01/03 07:12:32;;;;;;;30.20;4.95;;;9.10;87.10;;;;;;5101515;28;20020;-46
2022/01/03 07:20:12;;;;;;;27.60;6.53;;;9.00;87.10;;;;;;5097066;28;20387;-45
2022/01/03 07:22:40;;;;;;;31.98;7.25;;;9.10;87.30;;;;;;5111146;28;20032;-45
2022/01/03 07:25:08;;;;;;;24.63;4.70;;;9.10;87.20;;;;;;5103117;28;20034;-48
2022/01/03 07:27:36;;;;;;;28.15;5.05;;;9.00;87.30;;;;;;5104216;28;20111;-45
2022/01/03 07:30:04;;;;;;;23.00;4.75;;;9.10;87.20;;;;;;5110165;28;20038;-47
2022/01/03 07:32:30;;;;;;;23.33;6.05;;;9.00;87.20;;;;;;5100951;28;20036;-45
2022/01/03 07:34:58;;;;;;;21.20;5.03;;;9.10;87.20;;;;;;5109291;28;20055;-47
2022/01/03 07:37:24;;;;;;;21.75;5.50;;;9.10;87.20;;;;;;5106376;28;20039;-47
2022/01/03 07:39:49;;;;;;;27.15;6.40;;;9.10;87.20;;;;;;5094751;28;20032;-45
2022/01/03 07:42:16;;;;;;;31.13;5.85;;;9.10;87.10;;;;;;5107458;28;20028;-45
2022/01/03 07:44:46;;;;;;;29.65;5.70;;;9.10;87.20;;;;;;5092388;28;20140;-45
2022/01/03 07:47:12;;;;;;;18.25;3.97;;;9.10;87.10;;;;;;5112384;28;20028;-45
2022/01/03 07:49:38;;;;;;;27.98;6.63;;;9.10;87.10;;;;;;5107502;28;20344;-46
2022/01/03 07:52:05;;;;;;;28.63;6.22;;;9.10;87.10;;;;;;5077648;28;20437;-45
2022/01/03 07:54:30;;;;;;;27.15;5.25;;;9.10;87.10;;;;;;5108157;28;20102;-44
2022/01/03 07:56:56;;;;;;;24.05;4.38;;;9.20;87.20;;;;;;5111661;28;20115;-44
2022/01/03 07:59:22;;;;;;;26.13;5.38;;;9.10;87.20;;;;;;5111680;28;20329;-46
2022/01/03 08:01:47;;;;;;;30.25;5.47;;;9.10;87.20;;;;;;5109119;28;20040;-44
2022/01/03 08:04:14;;;;;;;27.80;6.85;;;9.20;87.10;;;;;;5105707;28;20040;-50
2022/01/03 08:06:40;;;;;;;20.55;4.97;;;9.20;86.90;;;;;;5089284;28;20031;-45
2022/01/03 08:09:05;;;;;;;29.67;7.38;;;9.20;86.80;;;;;;5110182;28;20031;-46
2022/01/03 08:11:31;;;;;;;20.40;6.18;;;9.30;86.60;;;;;;5110224;28;20047;-46
2022/01/03 08:13:57;;;;;;;26.10;5.72;;;9.30;86.60;;;;;;5111260;28;20046;-44
2022/01/03 08:16:22;;;;;;;22.38;4.65;;;9.30;86.50;;;;;;5111680;28;20066;-47
2022/01/03 08:18:49;;;;;;;21.48;6.28;;;9.30;86.20;;;;;;5114608;28;20024;-45
2022/01/03 08:21:15;;;;;;;27.35;5.60;;;9.40;86.30;;;;;;5110820;28;20043;-47
2022/01/03 08:23:41;;;;;;;25.67;5.47;;;9.40;86.30;;;;;;5078181;28;20703;-45
2022/01/03 08:26:10;;;;;;;27.75;5.07;;;9.40;86.30;;;;;;5093762;28;20045;-47
2022/01/03 08:28:35;;;;;;;23.20;5.28;;;9.40;86.20;;;;;;5113469;28;20032;-46
2022/01/03 08:31:01;;;;;;;24.17;4.05;;;9.40;86.10;;;;;;5106458;28;20089;-46
2022/01/03 08:33:28;;;;;;;22.25;5.55;;;9.40;86.20;;;;;;5113181;28;20356;-49
2022/01/03 08:35:53;;;;;;;24.20;5.80;;;9.40;86.20;;;;;;5111715;28;20097;-47
2022/01/03 08:38:19;;;;;;;28.88;5.80;;;9.40;86.00;;;;;;5104538;28;21839;-45
2022/01/03 08:40:46;;;;;;;22.67;4.63;;;9.30;86.20;;;;;;5114943;27;20024;-45
2022/01/03 08:43:15;;;;;;;24.55;5.35;;;9.30;86.10;;;;;;5095382;28;20149;-46
2022/01/03 08:45:40;;;;;;;22.58;6.10;;;9.40;85.90;;;;;;5086193;28;20059;-44
2022/01/03 08:48:06;;;;;;;21.23;4.65;;;9.40;85.80;;;;;;5092500;28;20749;-45
2022/01/03 08:50:34;;;;;;;21.42;4.32;;;9.40;85.60;;;;;;5073886;28;20040;-44
2022/01/03 08:53:04;;;;;;;29.35;5.35;;;9.40;85.70;;;;;;5072896;28;20037;-44
2022/01/03 08:55:30;;;;;;;26.40;4.82;;;9.40;85.40;;;;;;5085232;28;20035;-45
2022/01/03 08:57:55;;;;;;;20.42;4.57;;;9.50;85.30;;;;;;5084590;28;20033;-45
2022/01/03 09:00:25;;;;;;;17.48;4.35;;;9.50;85.20;;;;;;5090279;28;20110;-45
2022/01/03 09:02:56;;;;;;;23.10;6.68;;;9.50;85.30;;;;;;5089185;28;20028;-47
2022/01/03 09:05:22;;;;;;;26.40;4.38;;;9.50;85.40;;;;;;5088247;28;20457;-47
2022/01/03 09:07:47;;;;;;;23.05;5.72;;;9.50;85.50;;;;;;5087810;28;20036;-44
2022/01/03 09:10:13;;;;;;;29.55;5.28;;;9.50;85.40;;;;;;5091821;28;20040;-46
2022/01/03 09:12:40;;;;;;;24.02;5.13;;;9.50;85.80;;;;;;5075206;28;20040;-47
2022/01/03 09:15:06;;;;;;;27.55;6.50;;;9.50;86.00;;;;;;5076046;28;20369;-48
2022/01/03 09:17:31;;;;;;;21.67;4.22;;;9.50;86.00;;;;;;5074564;28;20032;-46
2022/01/03 09:19:57;;;;;;;24.85;5.68;;;9.60;85.70;;;;;;5084152;28;20025;-48
2022/01/03 09:22:30;;;;;;;21.52;5.43;;;9.60;85.60;;;;;;5088664;28;20181;-44
2022/01/03 09:30:13;;;;;;;25.65;4.95;;;9.70;85.50;;;;;;5090997;28;20488;-47
2022/01/03 09:32:39;;;;;;;22.40;5.00;;;9.70;85.10;;;;;;5076002;28;20043;-47
2022/01/03 09:35:06;;;;;;;27.50;4.95;;;9.70;85.30;;;;;;5076023;28;20040;-47
2022/01/03 09:37:37;;;;;;;26.70;5.63;;;9.80;85.30;;;;;;5090124;28;20024;-50
2022/01/03 09:40:05;;;;;;;26.98;4.55;;;9.70;85.20;;;;;;5076418;28;20032;-49
2022/01/03 09:42:32;;;;;;;23.20;5.03;;;9.70;85.10;;;;;;5083083;28;20036;-46
2022/01/03 09:45:01;;;;;;;26.13;6.28;;;9.70;85.00;;;;;;5084829;28;20062;-46
2022/01/03 09:47:29;;;;;;;;;;;9.70;84.90;;;;;;5110333;28;20020;-47
2022/01/03 09:49:58;;;;;;;18.90;4.70;;;9.70;85.10;;;;;;5094899;28;20002;-45
2022/01/03 09:52:25;;;;;;;24.48;5.75;;;9.70;85.00;;;;;;5088564;28;20062;-46
2022/01/03 09:54:55;;;;;;;27.10;5.30;;;9.70;85.10;;;;;;5108470;28;20032;-47
2022/01/03 09:57:21;;;;;;;26.75;6.15;;;9.60;85.20;;;;;;5094302;28;20023;-50
2022/01/03 09:59:48;;;;;;;27.65;6.18;;;9.50;85.30;;;;;;5106935;28;20035;-46
2022/01/03 10:02:18;;;;;;;27.92;5.38;;;9.50;85.30;;;;;;5101966;28;20053;-47
2022/01/03 10:04:44;;;;;;;;;;;9.50;85.50;;;;;;5109053;28;20043;-45
2022/01/03 10:07:11;;;;;;;30.85;5.15;;;9.50;85.50;;;;;;5095847;28;19915;-47
2022/01/03 10:09:38;;;;;;;25.60;3.90;;;9.50;85.30;;;;;;5128204;27;20642;-46
2022/01/03 10:12:05;;;;;;;21.48;5.25;;;9.50;85.20;;;;;;5112385;27;20023;-45
2022/01/03 10:14:33;;;;;;;22.80;4.88;;;9.50;85.20;;;;;;5131126;27;20333;-46
2022/01/03 10:16:58;;;;;;;17.13;4.57;;;9.40;85.00;;;;;;5132817;27;20027;-45
2022/01/03 10:19:25;;;;;;;25.45;6.25;;;9.50;85.30;;;;;;5132388;27;20043;-46
2022/01/03 10:21:51;;;;;;;21.25;5.38;;;9.50;85.30;;;;;;5127471;27;20036;-48
2022/01/03 10:24:29;;;;;;;21.95;5.30;;;9.60;85.20;;;;;;5125043;27;20031;-50
2022/01/03 10:26:56;;;;;;;23.23;4.13;;;9.70;85.10;;;;;;5105020;27;20056;-47
2022/01/03 10:29:52;;;;;;;32.60;4.88;;;9.70;85.00;;;;;;5124578;27;20084;-45
2022/01/03 10:32:27;;;;;;;21.77;5.28;;;9.80;84.60;;;;;;5124783;27;20069;-48
2022/01/03 10:34:54;;;;;;;16.95;4.75;;;9.90;84.50;;;;;;5109536;27;20039;-46
2022/01/03 10:37:32;;;;;;;28.45;6.13;;;10.00;84.40;;;;;;5113557;27;20541;-49
2022/01/03 10:39:57;;;;;;;26.60;4.72;;;10.10;84.00;;;;;;5111693;27;20190;-51
2022/01/03 10:42:25;;;;;;;22.70;4.63;;;10.00;83.80;;;;;;5126619;27;20139;-45
2022/01/03 10:44:51;;;;;;;22.67;5.28;;;10.00;83.90;;;;;;5098827;27;20443;-48
2022/01/03 10:47:34;;;;;;;26.27;5.50;;;9.90;84.00;;;;;;5121632;27;20035;-48
2022/01/03 10:50:11;;;;;;;20.30;5.35;;;9.90;83.70;;;;;;5113548;27;20054;-45
2022/01/03 10:52:40;;;;;;;21.77;5.43;;;9.90;83.80;;;;;;5132708;27;20027;-47
2022/01/03 10:55:14;;;;;;;18.67;4.40;;;9.90;84.00;;;;;;5130260;27;20079;-48
2022/01/03 10:57:54;;;;;;;23.30;4.80;;;9.90;83.80;;;;;;5125236;27;20042;-47
2022/01/03 11:00:36;;;;;;;31.55;6.32;;;9.90;83.80;;;;;;5108065;27;20038;-50
2022/01/03 11:05:53;;;;;;;17.60;4.10;;;9.90;84.10;;;;;;5127919;27;20031;-45
2022/01/03 11:11:09;;;;;;;22.30;4.97;;;9.90;84.00;;;;;;5126158;27;20069;-51
2022/01/03 11:13:38;;;;;;;27.90;4.63;;;9.90;84.10;;;;;;5129549;27;20058;-45
2022/01/03 11:16:06;;;;;;;25.35;4.68;;;9.90;83.90;;;;;;5125695;27;20024;-45
2022/01/03 11:18:46;;;;;;;20.80;5.55;;;9.90;83.70;;;;;;5132655;27;20475;-46
2022/01/03 11:21:14;;;;;;;22.02;5.32;;;9.90;83.90;;;;;;5108603;28;20639;-47
2022/01/03 11:24:03;;;;;;;22.77;4.40;;;9.90;83.80;;;;;;5132062;28;20032;-49
2022/01/03 11:26:35;;;;;;;16.67;4.90;;;10.10;84.90;;;;;;5130246;28;20528;-46
2022/01/03 11:29:03;;;;;;;22.15;4.90;;;10.10;83.30;;;;;;5097337;28;20420;-45
2022/01/03 11:31:33;;;;;;;30.05;6.28;;;10.10;83.20;;;;;;5123679;28;20027;-48
2022/01/03 11:34:00;;;;;;;18.42;5.45;;;10.20;83.10;;;;;;5131753;28;20015;-48
2022/01/03 11:36:26;;;;;;;24.90;4.97;;;10.20;82.40;;;;;;5130360;28;20023;-47
2022/01/03 11:38:56;;;;;;;18.23;4.32;;;10.20;82.60;;;;;;5120006;28;20028;-45
2022/01/03 11:41:24;;;;;;;23.25;4.63;;;10.20;82.70;;;;;;5126574;28;20027;-49
2022/01/03 11:43:50;;;;;;;19.15;4.30;;;10.20;82.30;;;;;;5131535;28;20055;-47
2022/01/03 11:46:16;;;;;;;21.13;4.30;;;10.10;82.50;;;;;;5128798;27;20031;-48
2022/01/03 11:48:45;;;;;;;21.52;4.78;;;10.10;82.70;;;;;;5113785;27;20038;-45
2022/01/03 11:51:12;;;;;;;15.35;4.40;;;10.10;82.70;;;;;;5113619;27;20027;-49
2022/01/03 11:53:47;;;;;;;23.38;5.07;;;10.10;82.60;;;;;;5136922;27;20443;-45
2022/01/03 11:56:22;;;;;;;21.23;5.03;;;10.10;82.70;;;;;;5118744;27;20066;-45
2022/01/03 12:04:41;;;;;;;18.15;5.03;;;10.20;82.70;;;;;;5097522;28;20096;-47
2022/01/03 12:07:09;;;;;;;19.52;3.50;;;10.10;82.30;;;;;;5111579;27;20035;-44
2022/01/03 12:09:43;;;;;;;22.85;4.55;;;10.10;82.50;;;;;;5121031;27;20361;-45
2022/01/03 12:12:30;;;;;;;23.92;4.68;;;10.10;82.70;;;;;;5110273;28;20016;-50
2022/01/03 12:14:58;;;;;;;21.85;5.68;;;10.00;82.80;;;;;;5108532;28;20038;-45
2022/01/03 12:17:52;;;;;;;29.75;4.47;;;10.10;83.00;;;;;;5109080;28;20801;-46
2022/01/03 12:20:17;;;;;;;16.33;4.25;;;10.10;82.90;;;;;;5112977;28;20035;-48
2022/01/03 12:22:54;;;;;;;21.65;4.60;;;10.10;82.80;;;;;;5114413;28;20027;-47
2022/01/03 12:25:32;;;;;;;21.92;4.35;;;10.20;82.40;;;;;;5099619;28;20084;-46
2022/01/03 12:28:03;;;;;;;17.42;4.75;;;10.20;82.40;;;;;;5104352;28;20108;-46
2022/01/03 12:30:37;;;;;;;20.98;4.68;;;10.20;82.50;;;;;;5126777;27;20031;-50
2022/01/03 12:33:06;;;;;;;17.02;3.90;;;10.20;82.40;;;;;;5129730;27;20035;-49
2022/01/03 12:35:33;;;;;;;28.03;5.23;;;10.20;82.70;;;;;;5132096;27;20050;-49
2022/01/03 12:38:05;;;;;;;25.42;5.80;;;10.20;82.50;;;;;;5110692;27;20192;-48
2022/01/03 12:40:52;;;;;;;23.45;5.00;;;10.20;82.10;;;;;;5110258;27;20019;-48
2022/01/03 12:43:36;;;;;;;14.63;4.07;;;10.20;82.50;;;;;;5134066;27;20503;-45
2022/01/03 12:46:04;;;;;;;17.25;3.13;;;10.20;82.00;;;;;;5133092;27;20159;-46
2022/01/03 12:48:32;;;;;;;21.52;5.20;;;10.20;81.90;;;;;;5129257;27;20034;-47
2022/01/03 12:51:17;;;;;;;21.67;4.03;;;10.20;81.90;;;;;;5134381;27;20027;-47
2022/01/03 12:53:47;;;;;;;16.30;4.45;;;10.20;81.70;;;;;;5112815;27;20019;-48
2022/01/03 12:56:19;;;;;;;20.42;4.45;;;10.20;82.00;;;;;;5135713;27;20409;-48
2022/01/03 12:58:52;;;;;;;24.90;5.05;;;10.20;82.10;;;;;;5110069;28;20024;-47
2022/01/03 13:01:18;;;;;;;19.92;4.20;;;10.20;82.20;;;;;;5107434;27;20028;-47
2022/01/03 13:03:49;;;;;;;23.30;6.40;;;10.20;82.20;;;;;;5112386;27;20023;-49
2022/01/03 13:06:27;;;;;;;20.75;4.22;;;10.10;81.80;;;;;;5113535;27;20035;-47
2022/01/03 13:09:02;;;;;;;21.42;4.32;;;10.20;82.20;;;;;;5113389;27;20119;-47
2022/01/03 13:11:44;;;;;;;23.08;4.65;;;10.20;82.30;;;;;;5132818;27;20011;-50
2022/01/03 13:14:28;;;;;;;18.45;4.18;;;10.20;81.80;;;;;;5122710;27;20053;-44
2022/01/03 13:16:56;;;;;;;19.55;4.35;;;10.20;82.00;;;;;;5131491;27;20024;-45
2022/01/03 13:19:30;;;;;;;17.15;4.22;;;10.10;82.20;;;;;;5116801;27;20069;-47
2022/01/03 13:22:14;;;;;;;16.83;5.88;;;10.10;82.20;;;;;;5116049;27;20027;-46
2022/01/03 13:24:46;;;;;;;22.90;5.20;;;10.10;82.30;;;;;;5133810;27;20019;-49
2022/01/03 13:27:27;;;;;;;17.08;4.15;;;10.10;82.10;;;;;;5112442;27;20031;-49